Time;durP1;ratioP1;P1;durP2;ratioP2;P2;SDS_P1;SDS_P2;PMS_P1;PMS_P2;Temp;Humidity;BMP_temperature;BMP_pressure;BME280_temperature;BME280_humidity;BME280_pressure;Samples;Min_cycle;Max_cycle;Signal;HPM_P1;HPM_P2
2023/06/22 00:09:18;;;;;;;6.63;2.95;;;;;;;;;;21080629;28;20469;-67
2023/06/22 00:19:19;;;;;;;6.57;3.22;;;;;;;;;;21080106;28;20086;-68
2023/06/22 00:29:20;;;;;;;7.32;3.72;;;;;;;;;;21079097;28;20048;-68
2023/06/22 00:39:21;;;;;;;8.57;3.60;;;;;;;;;;21097481;28;20083;-67
2023/06/22 00:49:23;;;;;;;6.00;3.75;;;;;;;;;;21096051;28;20040;-68
2023/06/22 00:59:25;;;;;;;6.18;3.80;;;;;;;;;;21095252;28;20040;-68
2023/06/22 01:09:31;;;;;;;11.13;3.72;;;;;;;;;;21094714;28;20099;-68
2023/06/22 01:19:46;;;;;;;9.23;3.72;;;;;;;;;;21092705;28;20517;-69
2023/06/22 01:29:49;;;;;;;9.05;4.47;;;;;;;;;;21093134;28;20048;-68
2023/06/22 01:39:50;;;;;;;6.97;3.83;;;;;;;;;;21092454;28;20397;-68
2023/06/22 01:49:52;;;;;;;6.80;3.53;;;;;;;;;;21091368;28;20136;-68
2023/06/22 02:00:13;;;;;;;4.75;3.10;;;;;;;;;;21089251;28;20044;-68
2023/06/22 02:10:16;;;;;;;7.78;3.47;;;;;;;;;;21090007;28;20076;-68
2023/06/22 02:20:17;;;;;;;4.85;3.10;;;;;;;;;;21089034;28;20066;-68
2023/06/22 02:30:19;;;;;;;9.00;3.95;;;;;;;;;;21087840;28;20110;-68
2023/06/22 02:40:20;;;;;;;8.60;4.30;;;;;;;;;;21087549;28;20043;-68
2023/06/22 02:50:21;;;;;;;7.20;4.18;;;;;;;;;;21086743;28;20048;-68
2023/06/22 03:00:22;;;;;;;8.90;4.80;;;;;;;;;;21085118;28;20092;-68
2023/06/22 03:10:23;;;;;;;6.57;4.10;;;;;;;;;;21084962;28;20173;-68
2023/06/22 03:20:26;;;;;;;4.50;3.20;;;;;;;;;;21084219;28;20042;-68
2023/06/22 03:30:27;;;;;;;5.40;2.80;;;;;;;;;;21083308;28;20576;-67
2023/06/22 03:40:29;;;;;;;5.57;2.78;;;;;;;;;;21083025;28;20055;-68
2023/06/22 03:50:30;;;;;;;5.38;2.75;;;;;;;;;;21080993;28;20135;-67
2023/06/22 04:00:34;;;;;;;7.63;3.15;;;;;;;;;;21081470;28;20044;-68
2023/06/22 04:10:35;;;;;;;4.90;2.53;;;;;;;;;;21078682;28;20048;-67
2023/06/22 04:20:37;;;;;;;5.45;2.97;;;;;;;;;;21079067;28;20040;-69
2023/06/22 04:30:46;;;;;;;7.43;2.58;;;;;;;;;;21078316;28;20055;-67
2023/06/22 04:40:47;;;;;;;7.20;2.85;;;;;;;;;;21079880;28;20486;-68
2023/06/22 04:50:48;;;;;;;6.50;3.17;;;;;;;;;;21079375;28;20505;-69
2023/06/22 05:00:51;;;;;;;5.28;2.85;;;;;;;;;;21078961;28;20485;-69
2023/06/22 05:10:52;;;;;;;10.20;4.78;;;;;;;;;;21078682;28;20405;-69
2023/06/22 05:20:54;;;;;;;11.00;5.78;;;;;;;;;;21086986;28;20400;-68
2023/06/22 05:30:55;;;;;;;9.80;5.43;;;;;;;;;;21092645;28;20052;-68
2023/06/22 05:40:56;;;;;;;9.52;6.38;;;;;;;;;;21092272;28;20162;-69
2023/06/22 05:50:57;;;;;;;10.00;6.72;;;;;;;;;;21091435;28;20537;-68
2023/06/22 06:01:00;;;;;;;13.95;8.05;;;;;;;;;;21090643;28;20123;-69
2023/06/22 06:11:01;;;;;;;9.45;6.47;;;;;;;;;;21088122;28;20079;-68
2023/06/22 06:21:02;;;;;;;14.27;9.10;;;;;;;;;;21087578;28;20040;-69
2023/06/22 06:31:07;;;;;;;14.65;8.20;;;;;;;;;;21086966;28;20439;-69
2023/06/22 06:41:08;;;;;;;13.98;7.72;;;;;;;;;;21086699;28;20048;-69
2023/06/22 06:51:09;;;;;;;9.02;6.25;;;;;;;;;;21085981;28;20044;-69
2023/06/22 07:01:10;;;;;;;13.32;8.07;;;;;;;;;;21085099;28;20550;-70
2023/06/22 07:11:11;;;;;;;15.85;8.45;;;;;;;;;;21084549;28;20446;-69
2023/06/22 07:21:12;;;;;;;13.85;7.18;;;;;;;;;;21083263;28;20096;-69
2023/06/22 07:31:13;;;;;;;9.90;6.15;;;;;;;;;;21082511;28;20417;-71
2023/06/22 07:41:15;;;;;;;15.68;7.10;;;;;;;;;;21081831;28;20119;-69
2023/06/22 07:51:16;;;;;;;11.27;7.07;;;;;;;;;;21081204;28;20052;-69
2023/06/22 08:01:20;;;;;;;13.35;7.30;;;;;;;;;;21080627;28;20040;-70
2023/06/22 08:11:23;;;;;;;10.45;6.03;;;;;;;;;;21079367;28;20048;-70
2023/06/22 08:21:24;;;;;;;9.52;5.95;;;;;;;;;;21080140;28;20504;-69
2023/06/22 08:31:25;;;;;;;10.93;5.97;;;;;;;;;;21079746;28;20052;-70
2023/06/22 08:41:27;;;;;;;11.55;6.68;;;;;;;;;;21079340;28;20105;-70
2023/06/22 08:51:29;;;;;;;10.00;6.15;;;;;;;;;;21080731;28;20116;-69
2023/06/22 09:01:30;;;;;;;9.60;5.50;;;;;;;;;;21095394;28;20044;-69
2023/06/22 09:11:31;;;;;;;9.90;5.07;;;;;;;;;;21094931;28;20498;-69
2023/06/22 09:21:32;;;;;;;11.35;5.80;;;;;;;;;;21093745;28;20536;-68
2023/06/22 09:31:33;;;;;;;6.90;4.78;;;;;;;;;;21092278;28;20048;-61
2023/06/22 09:41:34;;;;;;;10.07;5.18;;;;;;;;;;21091313;28;20040;-67
2023/06/22 09:51:35;;;;;;;8.60;3.63;;;;;;;;;;21090574;28;20436;-61
2023/06/22 10:01:36;;;;;;;9.50;4.68;;;;;;;;;;21087871;28;20127;-60
2023/06/22 10:11:38;;;;;;;10.27;7.35;;;;;;;;;;21088156;28;20052;-61
2023/06/22 10:21:39;;;;;;;12.88;7.72;;;;;;;;;;21086555;28;20063;-60
2023/06/22 10:31:40;;;;;;;11.05;7.50;;;;;;;;;;21085809;28;20060;-61
2023/06/22 10:41:41;;;;;;;8.90;5.93;;;;;;;;;;21084820;28;20074;-62
2023/06/22 10:51:42;;;;;;;8.95;5.85;;;;;;;;;;21085517;28;20044;-63
2023/06/22 11:01:43;;;;;;;9.75;6.13;;;;;;;;;;21084415;28;20044;-62
2023/06/22 11:11:44;;;;;;;7.55;4.68;;;;;;;;;;21082731;28;20047;-65
2023/06/22 11:21:46;;;;;;;10.13;5.18;;;;;;;;;;21081748;28;20048;-62
2023/06/22 11:31:47;;;;;;;10.43;6.18;;;;;;;;;;21081993;28;20472;-62
2023/06/22 11:41:48;;;;;;;4.22;3.08;;;;;;;;;;21079606;28;20044;-62
2023/06/22 11:51:49;;;;;;;5.07;2.55;;;;;;;;;;21080795;28;20413;-62
2023/06/22 12:01:51;;;;;;;5.43;2.97;;;;;;;;;;21080714;28;20397;-68
2023/06/22 12:11:52;;;;;;;4.97;2.20;;;;;;;;;;21079775;28;20048;-69
2023/06/22 12:21:53;;;;;;;3.60;2.38;;;;;;;;;;21078061;28;20489;-69
2023/06/22 12:31:54;;;;;;;3.47;2.17;;;;;;;;;;21088873;28;20055;-69
2023/06/22 12:41:55;;;;;;;5.10;1.90;;;;;;;;;;21095778;28;20123;-69
2023/06/22 12:51:57;;;;;;;3.13;2.20;;;;;;;;;;21095102;28;20418;-68
2023/06/22 13:01:58;;;;;;;17.05;4.03;;;;;;;;;;21095170;28;20066;-68
2023/06/22 13:12:00;;;;;;;6.03;2.83;;;;;;;;;;21094595;28;20248;-69
2023/06/22 13:22:03;;;;;;;7.50;3.20;;;;;;;;;;21093564;28;20044;-68
2023/06/22 13:32:05;;;;;;;3.53;2.05;;;;;;;;;;21092241;28;20112;-69
2023/06/22 13:42:06;;;;;;;3.92;1.92;;;;;;;;;;21091602;28;20371;-69
2023/06/22 13:52:10;;;;;;;4.35;2.30;;;;;;;;;;21091056;28;20378;-69
2023/06/22 14:02:11;;;;;;;7.22;4.97;;;;;;;;;;21089440;28;20489;-69
2023/06/22 14:12:12;;;;;;;3.45;2.30;;;;;;;;;;21089546;28;20123;-68
2023/06/22 14:22:13;;;;;;;3.60;2.50;;;;;;;;;;21087847;28;20069;-68
2023/06/22 14:32:14;;;;;;;3.70;2.17;;;;;;;;;;21087219;28;20047;-69
2023/06/22 14:42:15;;;;;;;7.32;2.33;;;;;;;;;;21087058;28;20075;-70
2023/06/22 14:52:17;;;;;;;2.53;2.03;;;;;;;;;;21085818;28;20036;-69
2023/06/22 15:02:18;;;;;;;3.58;2.00;;;;;;;;;;21085783;28;20036;-69
2023/06/22 15:12:19;;;;;;;3.25;2.15;;;;;;;;;;21084976;28;20162;-69
2023/06/22 15:22:20;;;;;;;3.72;2.20;;;;;;;;;;21083706;28;20565;-69
2023/06/22 15:32:22;;;;;;;3.92;2.15;;;;;;;;;;21082653;28;20513;-69
2023/06/22 15:42:23;;;;;;;4.75;2.50;;;;;;;;;;21081765;28;20040;-69
2023/06/22 15:52:24;;;;;;;3.08;2.20;;;;;;;;;;20974650;28;20082;-61
2023/06/22 16:02:28;;;;;;;4.15;3.10;;;;;;;;;;20962314;28;20040;-62
2023/06/22 16:12:29;;;;;;;4.72;2.90;;;;;;;;;;20993370;28;20127;-66
2023/06/22 16:22:30;;;;;;;3.78;2.55;;;;;;;;;;20987327;28;20079;-66
2023/06/22 16:32:31;;;;;;;4.20;2.38;;;;;;;;;;20978616;28;20074;-71
2023/06/22 16:42:32;;;;;;;3.47;2.50;;;;;;;;;;20968857;28;20116;-62
2023/06/22 16:52:34;;;;;;;4.10;2.70;;;;;;;;;;20979227;28;20541;-62
2023/06/22 17:02:38;;;;;;;6.47;3.05;;;;;;;;;;20982355;28;20048;-67
2023/06/22 17:12:40;;;;;;;4.65;2.28;;;;;;;;;;20991547;28;20539;-68
2023/06/22 17:22:43;;;;;;;5.13;3.22;;;;;;;;;;21002968;28;20044;-63
2023/06/22 17:32:48;;;;;;;4.35;2.90;;;;;;;;;;21002915;28;20048;-64
2023/06/22 17:42:49;;;;;;;3.50;2.38;;;;;;;;;;21000541;28;20084;-63
2023/06/22 17:52:53;;;;;;;6.97;2.83;;;;;;;;;;20992661;28;20444;-68
2023/06/22 18:02:55;;;;;;;8.38;2.42;;;;;;;;;;20921572;28;20055;-66
2023/06/22 18:12:57;;;;;;;4.78;2.00;;;;;;;;;;20915092;28;20067;-66
2023/06/22 18:22:58;;;;;;;4.90;2.22;;;;;;;;;;20914455;28;20041;-66
2023/06/22 18:32:59;;;;;;;5.07;3.00;;;;;;;;;;20920883;28;20485;-65
2023/06/22 18:43:00;;;;;;;3.90;2.28;;;;;;;;;;20920917;28;20149;-66
2023/06/22 18:53:03;;;;;;;3.70;2.60;;;;;;;;;;20920348;28;20069;-64
2023/06/22 19:03:04;;;;;;;5.20;3.25;;;;;;;;;;20918186;28;20041;-65
2023/06/22 19:13:19;;;;;;;4.80;3.40;;;;;;;;;;20916630;28;20049;-66
2023/06/22 19:23:30;;;;;;;6.63;3.22;;;;;;;;;;20916847;28;20561;-66
2023/06/22 19:33:32;;;;;;;4.95;2.22;;;;;;;;;;20915215;28;20057;-65
2023/06/22 19:43:33;;;;;;;5.20;3.33;;;;;;;;;;20914937;28;20485;-66
2023/06/22 19:53:34;;;;;;;3.85;2.40;;;;;;;;;;20913705;28;20041;-65
2023/06/22 20:03:40;;;;;;;5.43;2.72;;;;;;;;;;20913087;28;20095;-66
2023/06/22 20:13:52;;;;;;;5.55;2.95;;;;;;;;;;20913884;28;20060;-65
2023/06/22 20:23:53;;;;;;;3.90;2.70;;;;;;;;;;20913260;28;20041;-65
2023/06/22 20:34:03;;;;;;;6.93;3.70;;;;;;;;;;20912259;28;20051;-66
2023/06/22 20:44:05;;;;;;;6.97;2.85;;;;;;;;;;20910770;28;20048;-66
2023/06/22 20:54:06;;;;;;;7.90;4.75;;;;;;;;;;20924738;28;20045;-65
2023/06/22 21:04:07;;;;;;;9.35;3.83;;;;;;;;;;20927181;28;20037;-64
2023/06/22 21:14:08;;;;;;;7.30;3.22;;;;;;;;;;20925194;28;20053;-65
2023/06/22 21:24:09;;;;;;;6.30;3.10;;;;;;;;;;20924289;28;20041;-65
2023/06/22 21:34:10;;;;;;;12.77;7.32;;;;;;;;;;20924175;28;20391;-65
2023/06/22 21:44:11;;;;;;;6.75;4.10;;;;;;;;;;20924396;28;20092;-65
2023/06/22 21:54:14;;;;;;;7.82;4.18;;;;;;;;;;20924942;28;20378;-65
2023/06/22 22:04:15;;;;;;;7.78;4.18;;;;;;;;;;20923909;28;20211;-65
2023/06/22 22:14:18;;;;;;;10.77;5.50;;;;;;;;;;20923064;28;20077;-65
2023/06/22 22:24:19;;;;;;;6.75;4.32;;;;;;;;;;20921687;28;20045;-65
2023/06/22 22:34:20;;;;;;;7.53;4.60;;;;;;;;;;20920911;28;20053;-64
2023/06/22 22:44:21;;;;;;;6.93;4.60;;;;;;;;;;20919992;28;20048;-65
2023/06/22 22:54:22;;;;;;;6.70;4.50;;;;;;;;;;20920614;28;20052;-65
2023/06/22 23:04:23;;;;;;;5.15;3.28;;;;;;;;;;20918453;28;20041;-64
2023/06/22 23:14:24;;;;;;;5.60;2.95;;;;;;;;;;20918012;28;20505;-65
2023/06/22 23:24:25;;;;;;;7.63;3.17;;;;;;;;;;20916815;28;20088;-63
2023/06/22 23:34:26;;;;;;;7.45;4.00;;;;;;;;;;20916682;28;20114;-64
2023/06/22 23:44:28;;;;;;;6.03;2.75;;;;;;;;;;20916926;28;20075;-64
2023/06/22 23:54:29;;;;;;;4.57;2.97;;;;;;;;;;20916266;28;20401;-65
